sensor_id;sensor_type;location;lat;lon;timestamp;temperature;humidity
26107;DHT22;13866;50.748;12.630;2023-09-08T00:01:36;13.90;99.90
26107;DHT22;13866;50.748;12.630;2023-09-08T00:04:02;13.90;99.90
26107;DHT22;13866;50.748;12.630;2023-09-08T00:06:27;14.00;99.90
26107;DHT22;13866;50.748;12.630;2023-09-08T00:08:53;13.90;99.90
26107;DHT22;13866;50.748;12.630;2023-09-08T00:11:18;13.90;99.90
26107;DHT22;13866;50.748;12.630;2023-09-08T00:13:44;13.70;99.90
26107;DHT22;13866;50.748;12.630;2023-09-08T00:16:09;13.80;99.90
26107;DHT22;13866;50.748;12.630;2023-09-08T00:18:35;13.80;99.90
26107;DHT22;13866;50.748;12.630;2023-09-08T00:21:01;13.70;99.90
26107;DHT22;13866;50.748;12.630;2023-09-08T00:23:26;13.70;99.90
26107;DHT22;13866;50.748;12.630;2023-09-08T00:25:53;13.60;99.90
26107;DHT22;13866;50.748;12.630;2023-09-08T00:28:19;13.60;99.90
26107;DHT22;13866;50.748;12.630;2023-09-08T00:30:44;13.60;99.90
26107;DHT22;13866;50.748;12.630;2023-09-08T00:33:10;13.60;99.90
26107;DHT22;13866;50.748;12.630;2023-09-08T00:35:38;13.60;99.90
26107;DHT22;13866;50.748;12.630;2023-09-08T00:38:03;13.50;99.90
26107;DHT22;13866;50.748;12.630;2023-09-08T00:40:29;13.40;99.90
26107;DHT22;13866;50.748;12.630;2023-09-08T00:42:54;13.30;99.90
26107;DHT22;13866;50.748;12.630;2023-09-08T00:45:20;13.30;99.90
26107;DHT22;13866;50.748;12.630;2023-09-08T00:47:46;13.40;99.90
26107;DHT22;13866;50.748;12.630;2023-09-08T00:50:11;13.30;99.90
26107;DHT22;13866;50.748;12.630;2023-09-08T00:52:37;13.40;99.90
26107;DHT22;13866;50.748;12.630;2023-09-08T00:55:03;13.40;99.90
26107;DHT22;13866;50.748;12.630;2023-09-08T00:57:29;13.40;99.90
26107;DHT22;13866;50.748;12.630;2023-09-08T00:59:54;13.30;99.90
26107;DHT22;13866;50.748;12.630;2023-09-08T01:02:21;13.30;99.90
26107;DHT22;13866;50.748;12.630;2023-09-08T01:04:47;13.30;99.90
26107;DHT22;13866;50.748;12.630;2023-09-08T01:07:13;13.20;99.90
26107;DHT22;13866;50.748;12.630;2023-09-08T01:09:40;13.10;99.90
26107;DHT22;13866;50.748;12.630;2023-09-08T01:12:07;13.10;99.90
26107;DHT22;13866;50.748;12.630;2023-09-08T01:14:32;13.10;99.90
26107;DHT22;13866;50.748;12.630;2023-09-08T01:16:58;13.00;99.90
26107;DHT22;13866;50.748;12.630;2023-09-08T01:19:23;12.90;99.90
26107;DHT22;13866;50.748;12.630;2023-09-08T01:26:59;13.00;99.90
26107;DHT22;13866;50.748;12.630;2023-09-08T01:29:25;13.00;99.90
26107;DHT22;13866;50.748;12.630;2023-09-08T01:31:51;13.00;99.90
26107;DHT22;13866;50.748;12.630;2023-09-08T01:34:18;13.10;99.90
26107;DHT22;13866;50.748;12.630;2023-09-08T01:36:45;13.10;99.90
26107;DHT22;13866;50.748;12.630;2023-09-08T01:39:10;13.00;99.90
26107;DHT22;13866;50.748;12.630;2023-09-08T01:41:36;13.00;99.90
26107;DHT22;13866;50.748;12.630;2023-09-08T01:44:02;12.90;99.90
26107;DHT22;13866;50.748;12.630;2023-09-08T01:46:33;12.90;99.90
26107;DHT22;13866;50.748;12.630;2023-09-08T01:48:59;12.90;99.90
26107;DHT22;13866;50.748;12.630;2023-09-08T01:51:24;12.90;99.90
26107;DHT22;13866;50.748;12.630;2023-09-08T01:53:50;13.00;99.90
26107;DHT22;13866;50.748;12.630;2023-09-08T01:56:15;12.90;99.90
26107;DHT22;13866;50.748;12.630;2023-09-08T01:58:41;12.80;99.90
26107;DHT22;13866;50.748;12.630;2023-09-08T02:01:06;12.70;99.90
26107;DHT22;13866;50.748;12.630;2023-09-08T02:03:32;12.60;99.90
26107;DHT22;13866;50.748;12.630;2023-09-08T02:05:58;12.50;99.90
26107;DHT22;13866;50.748;12.630;2023-09-08T02:08:23;12.50;99.90
26107;DHT22;13866;50.748;12.630;2023-09-08T02:10:49;12.50;99.90
26107;DHT22;13866;50.748;12.630;2023-09-08T02:13:14;12.60;99.90
26107;DHT22;13866;50.748;12.630;2023-09-08T02:15:40;12.70;99.90
26107;DHT22;13866;50.748;12.630;2023-09-08T02:18:07;12.60;99.90
26107;DHT22;13866;50.748;12.630;2023-09-08T02:20:32;12.40;99.90
26107;DHT22;13866;50.748;12.630;2023-09-08T02:23:04;12.40;99.90
26107;DHT22;13866;50.748;12.630;2023-09-08T02:25:30;12.30;99.90
26107;DHT22;13866;50.748;12.630;2023-09-08T02:27:56;12.40;99.90
26107;DHT22;13866;50.748;12.630;2023-09-08T02:30:21;12.50;99.90
26107;DHT22;13866;50.748;12.630;2023-09-08T02:32:47;12.40;99.90
26107;DHT22;13866;50.748;12.630;2023-09-08T02:35:12;12.30;99.90
26107;DHT22;13866;50.748;12.630;2023-09-08T02:37:38;12.30;99.90
26107;DHT22;13866;50.748;12.630;2023-09-08T02:40:04;12.30;99.90
26107;DHT22;13866;50.748;12.630;2023-09-08T02:42:31;12.20;99.90
26107;DHT22;13866;50.748;12.630;2023-09-08T02:44:56;12.30;99.90
26107;DHT22;13866;50.748;12.630;2023-09-08T02:47:21;12.30;99.90
26107;DHT22;13866;50.748;12.630;2023-09-08T02:49:47;12.30;99.90
26107;DHT22;13866;50.748;12.630;2023-09-08T02:52:12;12.30;99.90
26107;DHT22;13866;50.748;12.630;2023-09-08T02:54:38;12.30;99.90
26107;DHT22;13866;50.748;12.630;2023-09-08T02:57:04;12.30;99.90
26107;DHT22;13866;50.748;12.630;2023-09-08T02:59:30;12.10;99.90
26107;DHT22;13866;50.748;12.630;2023-09-08T03:01:55;12.20;99.90
26107;DHT22;13866;50.748;12.630;2023-09-08T03:04:21;12.20;99.90
26107;DHT22;13866;50.748;12.630;2023-09-08T03:06:46;12.10;99.90
26107;DHT22;13866;50.748;12.630;2023-09-08T03:09:12;12.10;99.90
26107;DHT22;13866;50.748;12.630;2023-09-08T03:11:37;12.10;99.90
26107;DHT22;13866;50.748;12.630;2023-09-08T03:14:03;12.20;99.90
26107;DHT22;13866;50.748;12.630;2023-09-08T03:16:28;12.20;99.90
26107;DHT22;13866;50.748;12.630;2023-09-08T03:18:54;12.20;99.90
26107;DHT22;13866;50.748;12.630;2023-09-08T03:21:19;12.20;99.90
26107;DHT22;13866;50.748;12.630;2023-09-08T03:23:45;12.20;99.90
26107;DHT22;13866;50.748;12.630;2023-09-08T03:26:11;12.10;99.90
26107;DHT22;13866;50.748;12.630;2023-09-08T03:28:37;12.20;99.90
26107;DHT22;13866;50.748;12.630;2023-09-08T03:31:04;12.30;99.90
26107;DHT22;13866;50.748;12.630;2023-09-08T03:33:30;12.30;99.90
26107;DHT22;13866;50.748;12.630;2023-09-08T03:35:55;12.20;99.90
26107;DHT22;13866;50.748;12.630;2023-09-08T03:38:22;12.10;99.90
26107;DHT22;13866;50.748;12.630;2023-09-08T03:40:47;12.10;99.90
26107;DHT22;13866;50.748;12.630;2023-09-08T03:43:13;12.00;99.90
26107;DHT22;13866;50.748;12.630;2023-09-08T03:45:39;12.00;99.90
26107;DHT22;13866;50.748;12.630;2023-09-08T03:48:05;12.00;99.90
26107;DHT22;13866;50.748;12.630;2023-09-08T03:50:30;12.00;99.90
26107;DHT22;13866;50.748;12.630;2023-09-08T03:52:56;12.00;99.90
26107;DHT22;13866;50.748;12.630;2023-09-08T03:55:21;11.90;99.90
26107;DHT22;13866;50.748;12.630;2023-09-08T03:57:47;11.90;99.90
26107;DHT22;13866;50.748;12.630;2023-09-08T04:00:13;11.90;99.90
26107;DHT22;13866;50.748;12.630;2023-09-08T04:02:44;11.90;99.90
26107;DHT22;13866;50.748;12.630;2023-09-08T04:05:10;11.90;99.90
26107;DHT22;13866;50.748;12.630;2023-09-08T04:07:36;11.90;99.90
26107;DHT22;13866;50.748;12.630;2023-09-08T04:10:02;11.90;99.90
26107;DHT22;13866;50.748;12.630;2023-09-08T04:12:28;11.90;99.90
26107;DHT22;13866;50.748;12.630;2023-09-08T04:14:53;11.90;99.90
26107;DHT22;13866;50.748;12.630;2023-09-08T04:17:19;11.80;99.90
26107;DHT22;13866;50.748;12.630;2023-09-08T04:19:44;11.80;99.90
26107;DHT22;13866;50.748;12.630;2023-09-08T04:22:10;11.80;99.90
26107;DHT22;13866;50.748;12.630;2023-09-08T04:24:36;11.70;99.90
26107;DHT22;13866;50.748;12.630;2023-09-08T04:27:02;11.70;99.90
26107;DHT22;13866;50.748;12.630;2023-09-08T04:29:28;11.50;99.90
26107;DHT22;13866;50.748;12.630;2023-09-08T04:31:53;11.60;99.90
26107;DHT22;13866;50.748;12.630;2023-09-08T04:34:19;11.60;99.90
26107;DHT22;13866;50.748;12.630;2023-09-08T04:36:44;11.60;99.90
26107;DHT22;13866;50.748;12.630;2023-09-08T04:39:10;11.60;99.90
26107;DHT22;13866;50.748;12.630;2023-09-08T04:41:37;11.60;99.90
26107;DHT22;13866;50.748;12.630;2023-09-08T04:44:03;11.50;99.90
26107;DHT22;13866;50.748;12.630;2023-09-08T04:46:28;11.50;99.90
26107;DHT22;13866;50.748;12.630;2023-09-08T04:48:54;11.50;99.90
26107;DHT22;13866;50.748;12.630;2023-09-08T04:51:20;11.50;99.90
26107;DHT22;13866;50.748;12.630;2023-09-08T04:53:45;11.50;99.90
26107;DHT22;13866;50.748;12.630;2023-09-08T04:56:12;11.50;99.90
26107;DHT22;13866;50.748;12.630;2023-09-08T04:58:37;11.50;99.90
26107;DHT22;13866;50.748;12.630;2023-09-08T05:01:03;11.50;99.90
26107;DHT22;13866;50.748;12.630;2023-09-08T05:03:28;11.60;99.90
26107;DHT22;13866;50.748;12.630;2023-09-08T05:05:55;11.60;99.90
26107;DHT22;13866;50.748;12.630;2023-09-08T05:08:21;11.60;99.90
26107;DHT22;13866;50.748;12.630;2023-09-08T05:10:46;11.60;99.90
26107;DHT22;13866;50.748;12.630;2023-09-08T05:13:12;11.60;99.90
26107;DHT22;13866;50.748;12.630;2023-09-08T05:15:37;11.60;99.90
26107;DHT22;13866;50.748;12.630;2023-09-08T05:18:05;11.70;99.90
26107;DHT22;13866;50.748;12.630;2023-09-08T05:20:30;11.80;99.90
26107;DHT22;13866;50.748;12.630;2023-09-08T05:22:56;12.10;99.90
26107;DHT22;13866;50.748;12.630;2023-09-08T05:25:21;12.40;99.90
26107;DHT22;13866;50.748;12.630;2023-09-08T05:27:47;12.70;99.90
26107;DHT22;13866;50.748;12.630;2023-09-08T05:30:14;12.90;99.90
26107;DHT22;13866;50.748;12.630;2023-09-08T05:32:39;13.20;99.90
26107;DHT22;13866;50.748;12.630;2023-09-08T05:35:05;13.50;99.90
26107;DHT22;13866;50.748;12.630;2023-09-08T05:37:31;13.60;99.90
26107;DHT22;13866;50.748;12.630;2023-09-08T05:39:56;13.80;99.90
26107;DHT22;13866;50.748;12.630;2023-09-08T05:42:21;14.00;99.90
26107;DHT22;13866;50.748;12.630;2023-09-08T05:44:47;14.20;99.90
26107;DHT22;13866;50.748;12.630;2023-09-08T05:47:13;14.50;99.90
26107;DHT22;13866;50.748;12.630;2023-09-08T05:49:38;14.60;99.90
26107;DHT22;13866;50.748;12.630;2023-09-08T05:52:04;14.70;99.90
26107;DHT22;13866;50.748;12.630;2023-09-08T05:54:30;14.80;99.90
26107;DHT22;13866;50.748;12.630;2023-09-08T05:56:55;15.00;99.90
26107;DHT22;13866;50.748;12.630;2023-09-08T05:59:21;15.20;99.90
26107;DHT22;13866;50.748;12.630;2023-09-08T06:01:47;15.30;99.90
26107;DHT22;13866;50.748;12.630;2023-09-08T06:04:12;15.30;99.90
26107;DHT22;13866;50.748;12.630;2023-09-08T06:06:38;15.40;99.90
26107;DHT22;13866;50.748;12.630;2023-09-08T06:09:04;15.50;99.90
26107;DHT22;13866;50.748;12.630;2023-09-08T06:11:31;15.60;99.90
26107;DHT22;13866;50.748;12.630;2023-09-08T06:13:57;15.70;99.90
26107;DHT22;13866;50.748;12.630;2023-09-08T06:16:25;16.10;99.90
26107;DHT22;13866;50.748;12.630;2023-09-08T06:18:50;16.30;99.90
26107;DHT22;13866;50.748;12.630;2023-09-08T06:21:16;16.50;99.90
26107;DHT22;13866;50.748;12.630;2023-09-08T06:23:41;16.60;99.90
26107;DHT22;13866;50.748;12.630;2023-09-08T06:26:07;16.80;99.90
26107;DHT22;13866;50.748;12.630;2023-09-08T06:28:32;16.90;99.90
26107;DHT22;13866;50.748;12.630;2023-09-08T06:30:58;17.10;99.90
26107;DHT22;13866;50.748;12.630;2023-09-08T06:33:23;17.30;99.90
26107;DHT22;13866;50.748;12.630;2023-09-08T06:35:49;17.50;99.90
26107;DHT22;13866;50.748;12.630;2023-09-08T06:38:15;17.70;99.90
26107;DHT22;13866;50.748;12.630;2023-09-08T06:40:40;17.90;99.90
26107;DHT22;13866;50.748;12.630;2023-09-08T06:43:06;18.00;99.90
26107;DHT22;13866;50.748;12.630;2023-09-08T06:45:31;18.20;99.90
26107;DHT22;13866;50.748;12.630;2023-09-08T06:47:57;18.30;99.90
26107;DHT22;13866;50.748;12.630;2023-09-08T06:50:23;18.50;99.90
26107;DHT22;13866;50.748;12.630;2023-09-08T06:52:51;18.60;99.90
26107;DHT22;13866;50.748;12.630;2023-09-08T06:55:17;18.80;99.90
26107;DHT22;13866;50.748;12.630;2023-09-08T06:57:43;19.00;99.90
26107;DHT22;13866;50.748;12.630;2023-09-08T07:00:09;19.20;99.90
26107;DHT22;13866;50.748;12.630;2023-09-08T07:02:37;19.40;99.90
26107;DHT22;13866;50.748;12.630;2023-09-08T07:05:03;19.60;99.90
26107;DHT22;13866;50.748;12.630;2023-09-08T07:07:35;19.70;99.90
26107;DHT22;13866;50.748;12.630;2023-09-08T07:10:05;19.90;99.70
26107;DHT22;13866;50.748;12.630;2023-09-08T07:12:30;20.00;99.90
26107;DHT22;13866;50.748;12.630;2023-09-08T07:14:56;20.30;93.00
26107;DHT22;13866;50.748;12.630;2023-09-08T07:17:22;20.30;91.30
26107;DHT22;13866;50.748;12.630;2023-09-08T07:19:50;20.60;94.00
26107;DHT22;13866;50.748;12.630;2023-09-08T07:22:16;20.90;87.60
26107;DHT22;13866;50.748;12.630;2023-09-08T07:24:42;21.00;91.90
26107;DHT22;13866;50.748;12.630;2023-09-08T07:27:07;21.10;82.90
26107;DHT22;13866;50.748;12.630;2023-09-08T07:29:33;21.20;83.40
26107;DHT22;13866;50.748;12.630;2023-09-08T07:31:59;21.50;69.80
26107;DHT22;13866;50.748;12.630;2023-09-08T07:34:25;21.70;69.30
26107;DHT22;13866;50.748;12.630;2023-09-08T07:36:50;21.80;62.00
26107;DHT22;13866;50.748;12.630;2023-09-08T07:39:16;21.60;66.80
26107;DHT22;13866;50.748;12.630;2023-09-08T07:41:41;21.90;61.00
26107;DHT22;13866;50.748;12.630;2023-09-08T07:44:07;22.20;64.70
26107;DHT22;13866;50.748;12.630;2023-09-08T07:46:33;22.40;53.60
26107;DHT22;13866;50.748;12.630;2023-09-08T07:48:59;22.60;53.20
26107;DHT22;13866;50.748;12.630;2023-09-08T07:51:25;22.70;44.20
26107;DHT22;13866;50.748;12.630;2023-09-08T07:53:53;23.00;47.20
26107;DHT22;13866;50.748;12.630;2023-09-08T07:56:19;23.00;41.50
26107;DHT22;13866;50.748;12.630;2023-09-08T07:58:44;23.20;39.70
26107;DHT22;13866;50.748;12.630;2023-09-08T08:01:12;23.60;35.20
26107;DHT22;13866;50.748;12.630;2023-09-08T08:03:37;23.90;35.80
26107;DHT22;13866;50.748;12.630;2023-09-08T08:06:03;24.10;36.00
26107;DHT22;13866;50.748;12.630;2023-09-08T08:08:29;24.30;21.70
26107;DHT22;13866;50.748;12.630;2023-09-08T08:10:54;24.40;24.50
26107;DHT22;13866;50.748;12.630;2023-09-08T08:13:20;24.70;14.20
26107;DHT22;13866;50.748;12.630;2023-09-08T08:15:46;24.50;15.60
26107;DHT22;13866;50.748;12.630;2023-09-08T08:18:12;24.50;12.80
26107;DHT22;13866;50.748;12.630;2023-09-08T08:20:38;24.90;16.50
26107;DHT22;13866;50.748;12.630;2023-09-08T08:23:05;25.20;10.90
26107;DHT22;13866;50.748;12.630;2023-09-08T08:25:32;25.20;9.30
26107;DHT22;13866;50.748;12.630;2023-09-08T08:27:58;25.10;7.70
26107;DHT22;13866;50.748;12.630;2023-09-08T08:30:25;25.50;7.80
26107;DHT22;13866;50.748;12.630;2023-09-08T08:32:50;25.80;7.10
26107;DHT22;13866;50.748;12.630;2023-09-08T08:35:17;25.90;6.00
26107;DHT22;13866;50.748;12.630;2023-09-08T08:37:42;25.90;7.50
26107;DHT22;13866;50.748;12.630;2023-09-08T08:40:10;25.80;6.50
26107;DHT22;13866;50.748;12.630;2023-09-08T08:42:39;26.10;5.50
26107;DHT22;13866;50.748;12.630;2023-09-08T08:45:05;25.70;10.00
26107;DHT22;13866;50.748;12.630;2023-09-08T08:47:31;25.50;7.00
26107;DHT22;13866;50.748;12.630;2023-09-08T08:49:57;25.60;1.80
26107;DHT22;13866;50.748;12.630;2023-09-08T08:52:24;25.70;4.90
26107;DHT22;13866;50.748;12.630;2023-09-08T08:54:50;25.80;4.10
26107;DHT22;13866;50.748;12.630;2023-09-08T08:57:16;25.90;3.10
26107;DHT22;13866;50.748;12.630;2023-09-08T08:59:42;26.10;4.70
26107;DHT22;13866;50.748;12.630;2023-09-08T09:02:09;26.10;1.00
26107;DHT22;13866;50.748;12.630;2023-09-08T09:04:36;26.40;1.00
26107;DHT22;13866;50.748;12.630;2023-09-08T09:07:03;26.90;2.20
26107;DHT22;13866;50.748;12.630;2023-09-08T09:09:29;27.10;1.00
26107;DHT22;13866;50.748;12.630;2023-09-08T09:11:54;27.30;1.00
26107;DHT22;13866;50.748;12.630;2023-09-08T09:14:20;27.40;1.00
26107;DHT22;13866;50.748;12.630;2023-09-08T09:16:48;27.50;1.00
26107;DHT22;13866;50.748;12.630;2023-09-08T09:19:19;27.30;1.00
26107;DHT22;13866;50.748;12.630;2023-09-08T09:21:54;27.30;1.00
26107;DHT22;13866;50.748;12.630;2023-09-08T09:26:55;27.20;1.00
26107;DHT22;13866;50.748;12.630;2023-09-08T09:29:21;27.40;1.00
26107;DHT22;13866;50.748;12.630;2023-09-08T09:31:54;27.70;1.00
26107;DHT22;13866;50.748;12.630;2023-09-08T09:34:21;27.90;1.00
26107;DHT22;13866;50.748;12.630;2023-09-08T09:36:50;28.10;1.00
26107;DHT22;13866;50.748;12.630;2023-09-08T09:39:20;28.40;1.00
26107;DHT22;13866;50.748;12.630;2023-09-08T09:41:47;28.20;1.00
26107;DHT22;13866;50.748;12.630;2023-09-08T09:44:14;28.40;1.00
26107;DHT22;13866;50.748;12.630;2023-09-08T09:46:44;28.30;1.00
26107;DHT22;13866;50.748;12.630;2023-09-08T09:49:11;28.50;1.00
26107;DHT22;13866;50.748;12.630;2023-09-08T09:51:49;28.90;1.00
26107;DHT22;13866;50.748;12.630;2023-09-08T09:54:18;28.60;1.00
26107;DHT22;13866;50.748;12.630;2023-09-08T09:56:44;28.60;1.00
26107;DHT22;13866;50.748;12.630;2023-09-08T09:59:11;28.20;1.00
26107;DHT22;13866;50.748;12.630;2023-09-08T10:01:39;27.70;1.00
26107;DHT22;13866;50.748;12.630;2023-09-08T10:04:05;27.90;1.00
26107;DHT22;13866;50.748;12.630;2023-09-08T10:06:33;28.70;1.00
26107;DHT22;13866;50.748;12.630;2023-09-08T10:09:03;29.00;1.00
26107;DHT22;13866;50.748;12.630;2023-09-08T10:11:43;29.00;1.00
26107;DHT22;13866;50.748;12.630;2023-09-08T10:14:10;29.40;1.00
26107;DHT22;13866;50.748;12.630;2023-09-08T10:16:38;29.00;1.00
26107;DHT22;13866;50.748;12.630;2023-09-08T10:19:08;29.20;1.00
26107;DHT22;13866;50.748;12.630;2023-09-08T10:21:39;29.50;1.00
26107;DHT22;13866;50.748;12.630;2023-09-08T10:24:14;29.50;1.00
26107;DHT22;13866;50.748;12.630;2023-09-08T10:26:44;29.80;1.00
26107;DHT22;13866;50.748;12.630;2023-09-08T10:29:12;30.00;1.00
26107;DHT22;13866;50.748;12.630;2023-09-08T10:31:38;29.10;1.00
26107;DHT22;13866;50.748;12.630;2023-09-08T10:34:04;28.80;1.00
26107;DHT22;13866;50.748;12.630;2023-09-08T10:36:30;28.90;1.00
26107;DHT22;13866;50.748;12.630;2023-09-08T10:39:28;29.20;1.00
26107;DHT22;13866;50.748;12.630;2023-09-08T10:44:41;29.70;1.00
26107;DHT22;13866;50.748;12.630;2023-09-08T10:47:07;30.00;1.00
26107;DHT22;13866;50.748;12.630;2023-09-08T10:49:36;30.00;1.00
26107;DHT22;13866;50.748;12.630;2023-09-08T10:52:12;30.30;1.00
26107;DHT22;13866;50.748;12.630;2023-09-08T10:54:49;30.20;1.00
26107;DHT22;13866;50.748;12.630;2023-09-08T10:57:21;30.50;1.00
26107;DHT22;13866;50.748;12.630;2023-09-08T10:59:55;30.80;1.00
26107;DHT22;13866;50.748;12.630;2023-09-08T11:02:40;31.00;1.00
26107;DHT22;13866;50.748;12.630;2023-09-08T11:05:10;31.20;1.00
26107;DHT22;13866;50.748;12.630;2023-09-08T11:07:37;31.10;1.00
26107;DHT22;13866;50.748;12.630;2023-09-08T11:10:03;31.00;1.00
26107;DHT22;13866;50.748;12.630;2023-09-08T11:12:30;31.40;1.00
26107;DHT22;13866;50.748;12.630;2023-09-08T11:14:56;30.70;1.00
26107;DHT22;13866;50.748;12.630;2023-09-08T11:17:26;30.00;1.00
26107;DHT22;13866;50.748;12.630;2023-09-08T11:19:51;30.70;1.00
26107;DHT22;13866;50.748;12.630;2023-09-08T11:22:18;31.10;1.00
26107;DHT22;13866;50.748;12.630;2023-09-08T11:24:44;30.80;1.00
26107;DHT22;13866;50.748;12.630;2023-09-08T11:27:11;30.80;1.00
26107;DHT22;13866;50.748;12.630;2023-09-08T11:29:36;31.20;1.00
26107;DHT22;13866;50.748;12.630;2023-09-08T11:32:06;31.50;1.00
26107;DHT22;13866;50.748;12.630;2023-09-08T11:34:33;31.80;1.00
26107;DHT22;13866;50.748;12.630;2023-09-08T11:36:59;31.30;1.00
26107;DHT22;13866;50.748;12.630;2023-09-08T11:39:24;31.80;1.00
26107;DHT22;13866;50.748;12.630;2023-09-08T11:41:53;31.80;1.00
26107;DHT22;13866;50.748;12.630;2023-09-08T11:44:19;31.20;1.00
26107;DHT22;13866;50.748;12.630;2023-09-08T11:46:46;31.50;1.00
26107;DHT22;13866;50.748;12.630;2023-09-08T11:49:13;31.30;1.00
26107;DHT22;13866;50.748;12.630;2023-09-08T11:51:39;31.10;1.00
26107;DHT22;13866;50.748;12.630;2023-09-08T11:54:04;31.00;1.00
26107;DHT22;13866;50.748;12.630;2023-09-08T11:56:30;31.00;1.00
26107;DHT22;13866;50.748;12.630;2023-09-08T11:58:57;31.00;1.00
26107;DHT22;13866;50.748;12.630;2023-09-08T12:01:23;31.40;1.00
26107;DHT22;13866;50.748;12.630;2023-09-08T12:03:55;31.50;1.00
26107;DHT22;13866;50.748;12.630;2023-09-08T12:06:25;31.00;1.00
26107;DHT22;13866;50.748;12.630;2023-09-08T12:08:51;30.90;1.00
26107;DHT22;13866;50.748;12.630;2023-09-08T12:11:16;31.40;1.00
26107;DHT22;13866;50.748;12.630;2023-09-08T12:13:42;31.60;1.00
26107;DHT22;13866;50.748;12.630;2023-09-08T12:16:18;30.60;1.00
26107;DHT22;13866;50.748;12.630;2023-09-08T12:18:44;30.80;1.00
26107;DHT22;13866;50.748;12.630;2023-09-08T12:21:10;31.10;1.00
26107;DHT22;13866;50.748;12.630;2023-09-08T12:23:49;31.40;1.00
26107;DHT22;13866;50.748;12.630;2023-09-08T12:26:16;31.30;1.00
26107;DHT22;13866;50.748;12.630;2023-09-08T12:28:42;31.70;1.00
26107;DHT22;13866;50.748;12.630;2023-09-08T12:31:08;32.00;1.00
26107;DHT22;13866;50.748;12.630;2023-09-08T12:33:35;31.90;1.00
26107;DHT22;13866;50.748;12.630;2023-09-08T12:36:10;32.20;1.00
26107;DHT22;13866;50.748;12.630;2023-09-08T12:38:36;32.40;1.00
26107;DHT22;13866;50.748;12.630;2023-09-08T12:41:02;32.20;1.00
26107;DHT22;13866;50.748;12.630;2023-09-08T12:43:27;32.00;1.00
26107;DHT22;13866;50.748;12.630;2023-09-08T12:45:53;32.20;1.00
26107;DHT22;13866;50.748;12.630;2023-09-08T12:48:19;31.80;1.00
26107;DHT22;13866;50.748;12.630;2023-09-08T12:50:44;31.70;1.00
26107;DHT22;13866;50.748;12.630;2023-09-08T12:53:10;31.70;1.00
26107;DHT22;13866;50.748;12.630;2023-09-08T12:55:35;31.30;1.00
26107;DHT22;13866;50.748;12.630;2023-09-08T12:58:01;31.40;1.00
26107;DHT22;13866;50.748;12.630;2023-09-08T13:00:26;31.60;1.00
26107;DHT22;13866;50.748;12.630;2023-09-08T13:02:53;31.60;1.00
26107;DHT22;13866;50.748;12.630;2023-09-08T13:05:18;31.70;1.00
26107;DHT22;13866;50.748;12.630;2023-09-08T13:07:44;31.70;1.00
26107;DHT22;13866;50.748;12.630;2023-09-08T13:10:09;31.30;1.00
26107;DHT22;13866;50.748;12.630;2023-09-08T13:12:35;31.30;1.00
26107;DHT22;13866;50.748;12.630;2023-09-08T13:15:00;31.30;1.00
26107;DHT22;13866;50.748;12.630;2023-09-08T13:17:26;31.40;1.00
26107;DHT22;13866;50.748;12.630;2023-09-08T13:19:51;30.80;1.00
26107;DHT22;13866;50.748;12.630;2023-09-08T13:22:18;30.90;1.00
26107;DHT22;13866;50.748;12.630;2023-09-08T13:24:43;30.40;1.00
26107;DHT22;13866;50.748;12.630;2023-09-08T13:27:09;30.10;1.00
26107;DHT22;13866;50.748;12.630;2023-09-08T13:29:35;30.30;1.00
26107;DHT22;13866;50.748;12.630;2023-09-08T13:32:01;30.20;1.00
26107;DHT22;13866;50.748;12.630;2023-09-08T13:34:26;30.70;1.00
26107;DHT22;13866;50.748;12.630;2023-09-08T13:36:52;31.00;1.00
26107;DHT22;13866;50.748;12.630;2023-09-08T13:39:17;30.90;1.00
26107;DHT22;13866;50.748;12.630;2023-09-08T13:41:53;30.50;1.00
26107;DHT22;13866;50.748;12.630;2023-09-08T13:44:20;31.00;1.00
26107;DHT22;13866;50.748;12.630;2023-09-08T13:46:47;31.10;1.00
26107;DHT22;13866;50.748;12.630;2023-09-08T13:49:13;31.20;1.00
26107;DHT22;13866;50.748;12.630;2023-09-08T13:51:38;31.00;1.00
26107;DHT22;13866;50.748;12.630;2023-09-08T13:54:04;31.10;1.00
26107;DHT22;13866;50.748;12.630;2023-09-08T13:56:30;30.90;1.00
26107;DHT22;13866;50.748;12.630;2023-09-08T13:58:55;30.80;1.00
26107;DHT22;13866;50.748;12.630;2023-09-08T14:01:21;30.70;1.00
26107;DHT22;13866;50.748;12.630;2023-09-08T14:03:46;30.60;1.00
26107;DHT22;13866;50.748;12.630;2023-09-08T14:06:12;30.80;1.00
26107;DHT22;13866;50.748;12.630;2023-09-08T14:08:37;30.50;1.00
26107;DHT22;13866;50.748;12.630;2023-09-08T14:11:02;30.10;1.00
26107;DHT22;13866;50.748;12.630;2023-09-08T14:13:28;30.20;1.00
26107;DHT22;13866;50.748;12.630;2023-09-08T14:15:54;30.30;1.00
26107;DHT22;13866;50.748;12.630;2023-09-08T14:18:19;30.30;1.00
26107;DHT22;13866;50.748;12.630;2023-09-08T14:20:45;30.00;1.00
26107;DHT22;13866;50.748;12.630;2023-09-08T14:23:10;29.70;1.00
26107;DHT22;13866;50.748;12.630;2023-09-08T14:25:36;29.80;1.00
26107;DHT22;13866;50.748;12.630;2023-09-08T14:28:02;29.80;1.00
26107;DHT22;13866;50.748;12.630;2023-09-08T14:30:30;30.00;1.00
26107;DHT22;13866;50.748;12.630;2023-09-08T14:32:56;29.90;1.00
26107;DHT22;13866;50.748;12.630;2023-09-08T14:35:22;30.10;1.00
26107;DHT22;13866;50.748;12.630;2023-09-08T14:37:48;30.00;1.00
26107;DHT22;13866;50.748;12.630;2023-09-08T14:40:14;29.70;1.00
26107;DHT22;13866;50.748;12.630;2023-09-08T14:42:40;29.40;1.00
26107;DHT22;13866;50.748;12.630;2023-09-08T14:45:06;29.40;1.00
26107;DHT22;13866;50.748;12.630;2023-09-08T14:47:31;29.60;1.00
26107;DHT22;13866;50.748;12.630;2023-09-08T14:49:57;29.50;1.00
26107;DHT22;13866;50.748;12.630;2023-09-08T14:52:23;29.30;1.00
26107;DHT22;13866;50.748;12.630;2023-09-08T14:54:49;29.30;1.00
26107;DHT22;13866;50.748;12.630;2023-09-08T14:57:14;29.10;1.00
26107;DHT22;13866;50.748;12.630;2023-09-08T14:59:40;29.10;1.00
26107;DHT22;13866;50.748;12.630;2023-09-08T15:02:09;29.20;1.00
26107;DHT22;13866;50.748;12.630;2023-09-08T15:04:35;28.80;1.00
26107;DHT22;13866;50.748;12.630;2023-09-08T15:07:00;28.60;1.00
26107;DHT22;13866;50.748;12.630;2023-09-08T15:09:26;28.70;1.00
26107;DHT22;13866;50.748;12.630;2023-09-08T15:11:51;28.60;1.00
26107;DHT22;13866;50.748;12.630;2023-09-08T15:14:17;28.60;1.00
26107;DHT22;13866;50.748;12.630;2023-09-08T15:16:42;28.50;1.00
26107;DHT22;13866;50.748;12.630;2023-09-08T15:19:08;28.50;1.00
26107;DHT22;13866;50.748;12.630;2023-09-08T15:21:34;28.60;1.00
26107;DHT22;13866;50.748;12.630;2023-09-08T15:23:59;28.50;1.00
26107;DHT22;13866;50.748;12.630;2023-09-08T15:26:25;28.40;1.00
26107;DHT22;13866;50.748;12.630;2023-09-08T15:28:51;28.40;1.00